createdAt,value
2022-09-14T00:01:37.534Z,11.85
2022-09-14T00:04:07.420Z,13.15
2022-09-14T00:06:35.679Z,14.70
2022-09-14T00:09:06.772Z,12.18
2022-09-14T00:11:37.137Z,15.32
2022-09-14T00:14:07.380Z,13.65
2022-09-14T00:16:40.311Z,12.25
2022-09-14T00:19:14.705Z,15.30
2022-09-14T00:21:42.718Z,15.02
2022-09-14T00:24:12.553Z,14.05
2022-09-14T00:26:40.511Z,15.18
2022-09-14T00:29:11.114Z,12.10
2022-09-14T00:31:41.178Z,14.60
2022-09-14T00:34:13.527Z,15.77
2022-09-14T00:36:44.818Z,17.27
2022-09-14T00:39:13.179Z,18.63
2022-09-14T00:41:43.194Z,13.45
2022-09-14T00:44:44.505Z,13.80
2022-09-14T00:47:14.756Z,15.50
2022-09-14T00:49:44.735Z,12.95
2022-09-14T00:52:18.633Z,13.25
2022-09-14T00:54:49.468Z,14.00
2022-09-14T00:57:18.216Z,16.45
2022-09-14T00:59:48.709Z,16.77
2022-09-14T01:02:21.435Z,15.68
2022-09-14T01:04:51.344Z,15.57
2022-09-14T01:07:32.785Z,14.50
2022-09-14T01:10:10.120Z,13.50
2022-09-14T01:12:45.906Z,14.85
2022-09-14T01:15:21.918Z,12.95
2022-09-14T01:17:58.223Z,15.48
2022-09-14T01:20:32.622Z,14.50
2022-09-14T01:23:08.378Z,13.05
2022-09-14T01:26:16.189Z,15.73
2022-09-14T01:28:51.875Z,14.40
2022-09-14T01:31:28.374Z,17.42
2022-09-14T01:34:03.884Z,14.43
2022-09-14T01:36:35.247Z,16.88
2022-09-14T01:39:03.827Z,18.38
2022-09-14T01:41:33.853Z,14.35
2022-09-14T01:44:08.629Z,18.05
2022-09-14T01:46:41.817Z,15.90
2022-09-14T01:49:14.126Z,16.17
2022-09-14T01:51:47.224Z,17.50
2022-09-14T01:54:20.572Z,16.92
2022-09-14T01:56:53.261Z,13.95
2022-09-14T01:59:25.453Z,17.17
2022-09-14T02:02:00.009Z,16.33
2022-09-14T02:04:35.460Z,14.85
2022-09-14T02:07:03.777Z,14.65
2022-09-14T02:09:31.977Z,19.70
2022-09-14T02:12:00.901Z,16.35
2022-09-14T02:14:31.779Z,18.80
2022-09-14T02:17:00.120Z,19.77
2022-09-14T02:19:33.530Z,20.23
2022-09-14T02:22:01.603Z,19.38
2022-09-14T02:24:29.758Z,25.02
2022-09-14T02:26:58.929Z,20.25
2022-09-14T02:29:26.931Z,24.88
2022-09-14T02:32:22.272Z,19.63
2022-09-14T02:35:06.804Z,18.88
2022-09-14T02:37:50.040Z,18.95
2022-09-14T02:40:25.173Z,15.30
2022-09-14T02:43:01.093Z,19.33
2022-09-14T02:45:33.603Z,18.90
2022-09-14T02:48:09.021Z,18.52
2022-09-14T02:50:44.502Z,19.25
2022-09-14T02:53:18.149Z,19.73
2022-09-14T02:55:51.491Z,16.75
2022-09-14T02:58:19.518Z,15.55
2022-09-14T03:00:50.525Z,16.10
2022-09-14T03:03:22.883Z,16.58
2022-09-14T03:05:50.941Z,14.40
2022-09-14T03:08:18.985Z,13.27
2022-09-14T03:10:47.252Z,15.35
2022-09-14T03:13:21.609Z,18.40
2022-09-14T03:15:49.754Z,17.35
2022-09-14T03:18:19.590Z,13.52
2022-09-14T03:20:47.756Z,13.95
2022-09-14T03:23:16.194Z,18.17
2022-09-14T03:25:45.617Z,13.30
2022-09-14T03:28:14.249Z,16.98
2022-09-14T03:30:42.273Z,16.58
2022-09-14T03:33:10.518Z,14.55
2022-09-14T03:35:39.861Z,19.70
2022-09-14T03:38:08.468Z,14.95
2022-09-14T03:40:36.407Z,17.27
2022-09-14T03:43:04.357Z,14.77
2022-09-14T03:45:32.227Z,15.43
2022-09-14T03:48:00.213Z,15.55
2022-09-14T03:50:28.553Z,13.52
2022-09-14T03:52:57.909Z,18.00
2022-09-14T03:55:26.249Z,16.50
2022-09-14T03:57:55.316Z,21.77
2022-09-14T04:00:24.221Z,21.33
2022-09-14T04:02:52.639Z,24.23
2022-09-14T04:05:22.003Z,23.23
2022-09-14T04:07:50.033Z,19.83
2022-09-14T04:10:19.621Z,17.90
2022-09-14T04:12:47.518Z,17.95
2022-09-14T04:15:15.449Z,21.27
2022-09-14T04:17:43.492Z,17.73
2022-09-14T04:20:11.754Z,19.15
2022-09-14T04:22:39.675Z,17.15
2022-09-14T04:25:08.426Z,19.05
2022-09-14T04:27:37.726Z,17.63
2022-09-14T04:30:06.982Z,18.98
2022-09-14T04:32:35.013Z,20.27
2022-09-14T04:35:02.950Z,16.95
2022-09-14T04:37:33.180Z,16.88
2022-09-14T04:40:01.433Z,22.98
2022-09-14T04:42:30.901Z,20.05
2022-09-14T04:45:00.258Z,18.50
2022-09-14T04:47:29.772Z,23.42
2022-09-14T04:49:57.775Z,17.17
2022-09-14T04:52:26.193Z,22.48
2022-09-14T04:54:54.113Z,23.85
2022-09-14T04:57:22.413Z,21.52
2022-09-14T04:59:50.415Z,22.75
2022-09-14T05:02:19.716Z,23.60
2022-09-14T05:04:47.733Z,19.58
2022-09-14T05:07:16.160Z,23.98
2022-09-14T05:09:44.110Z,23.55
2022-09-14T05:12:12.007Z,20.08
2022-09-14T05:14:39.909Z,23.13
2022-09-14T05:17:07.822Z,20.70
2022-09-14T05:19:37.096Z,22.10
2022-09-14T05:22:05.145Z,19.42
2022-09-14T05:24:33.088Z,22.27
2022-09-14T05:27:02.334Z,22.70
2022-09-14T05:29:31.797Z,19.10
2022-09-14T05:31:59.722Z,22.23
2022-09-14T05:34:27.589Z,23.13
2022-09-14T05:36:56.763Z,20.27
2022-09-14T05:39:25.058Z,18.25
2022-09-14T05:41:52.987Z,21.52
2022-09-14T05:44:20.822Z,20.05
2022-09-14T05:46:48.982Z,20.85
2022-09-14T05:49:17.079Z,17.23
2022-09-14T05:51:44.927Z,19.23
2022-09-14T05:54:14.331Z,18.33
2022-09-14T05:56:42.268Z,24.50
2022-09-14T05:59:10.786Z,19.35
2022-09-14T06:01:38.740Z,22.50
2022-09-14T06:04:06.659Z,23.00
2022-09-14T06:06:34.765Z,21.17
2022-09-14T06:09:02.725Z,19.95
2022-09-14T06:11:33.809Z,19.30
2022-09-14T06:14:02.011Z,22.33
2022-09-14T06:16:30.678Z,20.95
2022-09-14T06:19:00.008Z,21.75
2022-09-14T06:21:31.036Z,25.48
2022-09-14T06:23:59.287Z,26.00
2022-09-14T06:26:27.760Z,21.02
2022-09-14T06:28:57.385Z,20.95
2022-09-14T06:31:25.467Z,26.48
2022-09-14T06:33:53.731Z,22.83
2022-09-14T06:36:23.644Z,25.13
2022-09-14T06:41:21.995Z,23.02
2022-09-14T06:43:50.910Z,20.30
2022-09-14T06:46:21.852Z,23.00
2022-09-14T06:48:51.256Z,19.27
2022-09-14T06:51:22.927Z,18.58
2022-09-14T06:53:51.404Z,15.60
2022-09-14T06:56:20.180Z,19.63
2022-09-14T06:58:48.129Z,19.42
2022-09-14T07:01:17.804Z,16.83
2022-09-14T07:03:47.772Z,25.98
2022-09-14T07:06:19.162Z,17.50
2022-09-14T07:08:47.062Z,18.75
2022-09-14T07:11:17.687Z,19.30
2022-09-14T07:13:46.792Z,15.95
2022-09-14T07:16:15.714Z,14.50
2022-09-14T07:18:43.727Z,14.82
2022-09-14T07:21:15.051Z,15.18
2022-09-14T07:23:45.356Z,13.93
2022-09-14T07:26:14.887Z,15.63
2022-09-14T07:28:43.458Z,15.77
2022-09-14T07:31:18.796Z,16.23
2022-09-14T07:33:47.341Z,15.15
2022-09-14T07:36:16.845Z,14.35
2022-09-14T07:38:53.172Z,15.00
2022-09-14T07:41:21.981Z,17.27
2022-09-14T07:43:51.096Z,16.90
2022-09-14T07:46:19.701Z,19.48
2022-09-14T07:48:48.860Z,14.40
2022-09-14T07:51:18.096Z,18.43
2022-09-14T07:53:46.459Z,17.27
2022-09-14T07:56:16.663Z,18.70
2022-09-14T07:58:45.042Z,17.88
2022-09-14T08:01:14.946Z,16.38
2022-09-14T08:03:45.103Z,20.17
2022-09-14T08:06:15.074Z,19.77
2022-09-14T08:11:14.561Z,42.90
2022-09-14T08:16:13.889Z,34.05
2022-09-14T08:18:42.136Z,35.17
2022-09-14T08:21:12.485Z,34.13
2022-09-14T08:23:40.785Z,23.90
2022-09-14T08:26:11.761Z,27.20
2022-09-14T08:28:40.222Z,29.35
2022-09-14T08:31:09.658Z,24.58
2022-09-14T08:33:39.027Z,20.85
2022-09-14T08:36:08.675Z,23.40
2022-09-14T08:38:36.759Z,25.35
2022-09-14T08:41:13.196Z,19.38
2022-09-14T08:43:41.124Z,21.17
2022-09-14T08:46:14.881Z,19.60
2022-09-14T08:48:48.530Z,19.58
2022-09-14T08:51:18.265Z,21.02
2022-09-14T08:53:46.822Z,22.30
2022-09-14T08:56:18.675Z,20.70
2022-09-14T08:59:01.700Z,18.52
2022-09-14T09:01:40.213Z,18.33
2022-09-14T09:04:39.833Z,19.80
2022-09-14T09:07:14.121Z,19.05
2022-09-14T09:09:45.389Z,19.17
2022-09-14T09:12:18.320Z,17.90
2022-09-14T09:14:51.500Z,18.75
2022-09-14T09:17:23.872Z,19.50
2022-09-14T09:20:04.097Z,20.45
2022-09-14T09:22:40.845Z,21.40
2022-09-14T09:25:17.830Z,22.48
2022-09-14T09:27:47.628Z,22.65
2022-09-14T09:32:44.654Z,22.33
2022-09-14T09:35:17.472Z,26.30
2022-09-14T09:37:45.590Z,24.30
2022-09-14T09:40:20.505Z,23.98
2022-09-14T09:43:09.142Z,23.60
2022-09-14T09:45:53.860Z,21.40
2022-09-14T09:48:24.535Z,21.98
2022-09-14T09:51:02.202Z,16.83
2022-09-14T09:53:30.591Z,25.13
2022-09-14T09:55:58.760Z,19.65
2022-09-14T09:58:35.046Z,19.98
2022-09-14T10:01:11.513Z,16.95
2022-09-14T10:03:41.720Z,19.15
2022-09-14T10:06:11.612Z,17.60
2022-09-14T10:11:33.836Z,15.82
2022-09-14T10:14:05.261Z,17.30
2022-09-14T10:16:38.761Z,18.70
2022-09-14T10:19:15.016Z,22.70
2022-09-14T10:22:18.223Z,22.33
2022-09-14T10:24:57.754Z,18.48
2022-09-14T10:27:41.359Z,17.63
2022-09-14T10:30:18.190Z,20.65
2022-09-14T10:32:54.569Z,18.25
2022-09-14T10:35:29.353Z,17.35
2022-09-14T10:38:09.658Z,18.90
2022-09-14T10:40:39.547Z,20.98
2022-09-14T10:45:46.286Z,17.58
2022-09-14T10:48:46.737Z,21.15
2022-09-14T10:51:32.520Z,14.68
2022-09-14T10:54:08.879Z,19.73
2022-09-14T10:56:49.401Z,14.25
2022-09-14T10:59:29.414Z,17.17
2022-09-14T11:02:25.499Z,16.77
2022-09-14T11:05:14.044Z,17.70
2022-09-14T11:07:50.493Z,18.42
2022-09-14T11:10:24.796Z,16.10
2022-09-14T11:13:10.484Z,15.93
2022-09-14T11:15:45.429Z,15.50
2022-09-14T11:18:24.782Z,15.18
2022-09-14T11:21:04.374Z,17.52
2022-09-14T11:23:45.027Z,18.20
2022-09-14T11:26:16.592Z,16.45
2022-09-14T11:28:48.699Z,16.58
2022-09-14T11:31:21.709Z,17.23
2022-09-14T11:33:56.901Z,14.30
2022-09-14T11:36:29.177Z,16.27
2022-09-14T11:39:06.855Z,14.40
2022-09-14T11:41:42.528Z,16.15
2022-09-14T11:44:16.856Z,15.70
2022-09-14T11:46:50.704Z,14.07
2022-09-14T11:49:23.329Z,15.23
2022-09-14T11:51:54.697Z,12.60
2022-09-14T11:54:24.570Z,12.68
2022-09-14T11:59:51.385Z,14.52
2022-09-14T12:02:51.987Z,18.70
2022-09-14T12:05:35.907Z,16.17
2022-09-14T12:08:26.848Z,18.55
2022-09-14T12:11:03.393Z,15.55
2022-09-14T12:13:32.339Z,16.13
2022-09-14T12:16:05.813Z,16.35
2022-09-14T12:18:36.997Z,13.52
2022-09-14T12:21:09.233Z,13.65
2022-09-14T12:23:46.196Z,15.57
2022-09-14T12:26:31.339Z,14.48
2022-09-14T12:29:05.773Z,15.40
2022-09-14T12:31:39.427Z,20.50
2022-09-14T12:34:20.597Z,18.55
2022-09-14T12:37:07.594Z,16.17
2022-09-14T12:39:39.391Z,17.90
2022-09-14T12:45:50.920Z,16.75
2022-09-14T12:48:55.812Z,15.05
2022-09-14T12:51:32.666Z,15.85
2022-09-14T12:54:09.811Z,15.98
2022-09-14T12:56:43.080Z,15.32
2022-09-14T12:59:14.904Z,15.23
2022-09-14T13:01:51.610Z,17.38
2022-09-14T13:04:25.657Z,18.25
2022-09-14T13:06:55.516Z,17.85
2022-09-14T13:11:57.239Z,20.17
2022-09-14T13:14:28.443Z,23.05
2022-09-14T13:16:58.872Z,20.23
2022-09-14T13:19:30.098Z,17.58
2022-09-14T13:22:00.516Z,19.83
2022-09-14T13:24:32.490Z,20.40
2022-09-14T13:27:03.005Z,19.73
2022-09-14T13:29:31.353Z,19.65
2022-09-14T13:32:03.756Z,17.15
2022-09-14T13:34:35.946Z,17.75
2022-09-14T13:37:05.191Z,16.00
2022-09-14T13:39:36.972Z,19.55
2022-09-14T13:42:06.494Z,19.67
2022-09-14T13:44:36.828Z,19.35
2022-09-14T13:47:06.619Z,22.98
2022-09-14T13:52:43.509Z,18.30
2022-09-14T13:55:23.190Z,20.55
2022-09-14T13:58:14.082Z,17.33
2022-09-14T14:00:51.890Z,19.92
2022-09-14T14:03:34.097Z,18.80
2022-09-14T14:06:17.052Z,21.42
2022-09-14T14:08:45.166Z,19.65
2022-09-14T14:11:14.537Z,18.20
2022-09-14T14:13:42.546Z,22.55
2022-09-14T14:16:20.462Z,18.45
2022-09-14T14:18:55.865Z,20.88
2022-09-14T14:21:30.303Z,22.55
2022-09-14T14:24:27.836Z,29.77
2022-09-14T14:26:58.821Z,80.95
2022-09-14T14:29:27.410Z,75.43
2022-09-14T14:31:56.467Z,31.48
2022-09-14T14:34:27.153Z,24.30
2022-09-14T14:36:55.888Z,20.65
2022-09-14T14:39:25.542Z,23.80
2022-09-14T14:41:54.512Z,20.35
2022-09-14T14:44:28.110Z,20.10
2022-09-14T14:46:56.687Z,27.00
2022-09-14T14:49:24.652Z,23.85
2022-09-14T14:51:53.130Z,18.58
2022-09-14T14:54:21.330Z,19.63
2022-09-14T14:56:51.137Z,22.23
2022-09-14T15:02:11.026Z,27.75
2022-09-14T15:04:39.626Z,26.00
2022-09-14T15:07:07.909Z,29.35
2022-09-14T15:26:40.025Z,21.60
2022-09-14T15:32:12.684Z,26.98
2022-09-14T15:34:41.004Z,25.85
2022-09-14T15:37:10.517Z,25.92
2022-09-14T15:43:39.877Z,48.20
2022-09-14T15:46:08.096Z,29.77
2022-09-14T15:51:35.357Z,33.08
2022-09-14T15:56:59.447Z,25.05
2022-09-14T15:59:30.890Z,27.48
2022-09-14T16:01:59.028Z,25.48
2022-09-14T16:04:27.599Z,23.90
2022-09-14T16:06:58.088Z,24.85
2022-09-14T16:09:26.149Z,28.83
2022-09-14T16:11:57.179Z,26.80
2022-09-14T16:14:29.042Z,29.63
2022-09-14T16:16:58.772Z,26.70
2022-09-14T16:19:27.453Z,26.20
2022-09-14T16:21:55.650Z,29.63
2022-09-14T16:33:37.074Z,28.42
2022-09-14T16:39:57.748Z,30.92
2022-09-14T16:42:25.982Z,27.05
2022-09-14T16:44:56.143Z,29.77
2022-09-14T16:47:26.331Z,26.13
2022-09-14T16:49:57.081Z,29.25
2022-09-14T16:56:21.450Z,33.28
2022-09-14T16:59:00.386Z,39.08
2022-09-14T17:01:30.996Z,48.83
2022-09-14T17:04:08.263Z,45.72
2022-09-14T17:06:37.907Z,41.97
2022-09-14T17:09:34.326Z,43.08
2022-09-14T17:12:02.389Z,38.28
2022-09-14T17:14:33.613Z,34.40
2022-09-14T17:17:01.879Z,38.15
2022-09-14T17:19:31.379Z,41.42
2022-09-14T17:21:59.410Z,37.25
2022-09-14T17:24:27.377Z,37.15
2022-09-14T17:26:55.317Z,36.45
2022-09-14T17:29:23.735Z,35.45
2022-09-14T17:31:51.783Z,33.72
2022-09-14T17:34:19.924Z,31.88
2022-09-14T17:36:49.243Z,35.40
2022-09-14T17:39:17.177Z,35.78
2022-09-14T17:41:45.417Z,39.58
2022-09-14T17:44:15.908Z,40.45
2022-09-14T17:46:52.552Z,42.85
2022-09-14T17:49:21.984Z,40.55
2022-09-14T17:58:19.567Z,37.22
2022-09-14T18:00:47.968Z,36.15
2022-09-14T18:03:16.001Z,38.80
2022-09-14T18:05:55.174Z,38.33
2022-09-14T18:08:23.221Z,39.80
2022-09-14T18:13:50.935Z,35.80
2022-09-14T18:19:09.288Z,37.28
2022-09-14T18:21:38.646Z,35.53
2022-09-14T18:31:54.040Z,37.88
2022-09-14T19:19:57.407Z,42.38
2022-09-14T19:22:25.376Z,48.40
2022-09-14T19:24:54.264Z,45.80
2022-09-14T19:27:22.303Z,38.50
2022-09-14T19:29:50.294Z,45.50
2022-09-14T19:32:19.960Z,40.55
2022-09-14T19:34:47.984Z,41.35
2022-09-14T19:37:16.578Z,45.95
2022-09-14T19:39:44.753Z,40.55
2022-09-14T19:42:13.263Z,29.75
2022-09-14T19:44:41.356Z,33.30
2022-09-14T19:53:42.435Z,40.55
2022-09-14T19:56:14.735Z,37.78
2022-09-14T19:58:44.407Z,44.83
2022-09-14T20:01:12.576Z,39.47
2022-09-14T20:04:08.455Z,40.13
2022-09-14T20:06:40.168Z,44.42
2022-09-14T20:09:09.969Z,42.97
2022-09-14T20:11:39.494Z,39.53
2022-09-14T20:14:09.341Z,44.05
2022-09-14T20:19:10.718Z,38.42
2022-09-14T20:21:41.066Z,42.85
2022-09-14T20:24:17.778Z,32.20
2022-09-14T20:26:46.605Z,35.65
2022-09-14T20:29:15.111Z,42.33
2022-09-14T20:31:43.077Z,36.80
2022-09-14T20:34:13.162Z,29.92
2022-09-14T20:36:41.253Z,19.35
2022-09-14T20:39:09.764Z,18.40
2022-09-14T20:41:38.148Z,22.25
2022-09-14T20:44:06.860Z,27.70
2022-09-14T20:46:37.315Z,25.05
2022-09-14T20:49:07.619Z,21.80
2022-09-14T20:51:37.243Z,16.70
2022-09-14T20:54:06.226Z,10.70
2022-09-14T20:56:36.279Z,8.43
2022-09-14T20:59:07.129Z,11.05
2022-09-14T21:01:36.935Z,6.05
2022-09-14T21:04:08.422Z,2.67
2022-09-14T21:06:39.441Z,3.85
2022-09-14T21:09:08.590Z,2.10
2022-09-14T21:11:37.336Z,2.40
2022-09-14T21:14:05.648Z,1.27
2022-09-14T21:16:36.756Z,2.28
2022-09-14T21:19:08.881Z,2.97
2022-09-14T21:21:38.281Z,3.97
2022-09-14T21:24:09.563Z,3.35
2022-09-14T21:26:42.345Z,1.95
2022-09-14T21:29:14.164Z,1.98
2022-09-14T21:31:42.381Z,2.15
2022-09-14T21:34:12.212Z,4.10
2022-09-14T21:39:11.893Z,5.05
2022-09-14T21:44:08.400Z,9.02
2022-09-14T21:46:36.340Z,11.27
2022-09-14T21:49:04.671Z,11.48
2022-09-14T21:51:34.442Z,7.63
2022-09-14T21:54:06.060Z,8.20
2022-09-14T21:56:36.687Z,10.20
2022-09-14T21:59:07.633Z,6.95
2022-09-14T22:01:35.637Z,6.22
2022-09-14T22:04:04.829Z,7.38
2022-09-14T22:06:33.754Z,2.47
2022-09-14T22:09:03.292Z,3.45
2022-09-14T22:11:33.449Z,2.08
2022-09-14T22:14:03.532Z,1.75
2022-09-14T22:16:34.801Z,1.88
2022-09-14T22:19:04.944Z,2.10
2022-09-14T22:21:35.177Z,3.88
2022-09-14T22:24:07.225Z,3.67
2022-09-14T22:26:36.724Z,3.47
2022-09-14T22:29:05.569Z,5.07
2022-09-14T22:31:34.008Z,6.97
2022-09-14T22:34:02.448Z,9.45
2022-09-14T22:36:30.904Z,9.27
2022-09-14T22:39:00.877Z,9.07
2022-09-14T22:43:58.323Z,9.20
2022-09-14T22:46:26.834Z,10.70
2022-09-14T22:48:55.313Z,9.32
2022-09-14T22:51:26.448Z,8.93
2022-09-14T22:53:54.855Z,7.15
2022-09-14T22:56:25.206Z,7.18
2022-09-14T22:58:54.702Z,5.30
2022-09-14T23:01:31.956Z,4.10
2022-09-14T23:04:01.519Z,5.53
2022-09-14T23:06:30.803Z,5.50
2022-09-14T23:09:00.397Z,9.23
2022-09-14T23:11:28.481Z,7.97
2022-09-14T23:13:58.907Z,4.85
2022-09-14T23:27:44.610Z,7.38
2022-09-14T23:30:15.043Z,6.55
2022-09-14T23:32:43.017Z,8.20
2022-09-14T23:35:11.961Z,8.70
2022-09-14T23:37:39.895Z,7.00
2022-09-14T23:40:08.745Z,8.27
2022-09-14T23:42:36.700Z,5.95
2022-09-14T23:45:05.266Z,4.75
2022-09-14T23:47:34.535Z,5.13
2022-09-14T23:50:02.436Z,5.93
2022-09-14T23:52:31.025Z,8.27
2022-09-14T23:54:59.087Z,7.40
2022-09-14T23:57:27.019Z,8.65
2022-09-14T23:59:54.906Z,6.55
